Time;durP1;ratioP1;P1;durP2;ratioP2;P2;SDS_P1;SDS_P2;PMS_P1;PMS_P2;Temp;Humidity;BMP_temperature;BMP_pressure;BME280_temperature;BME280_humidity;BME280_pressure;Samples;Min_cycle;Max_cycle;Signal;HPM_P1;HPM_P2
2021/12/01 00:00:10;;;;;;;13.52;5.68;;;;;;;9.06;100.00;100181.25;5042545;28;20219;-63
2021/12/01 00:02:35;;;;;;;15.57;6.03;;;;;;;9.04;99.94;100181.22;5042369;28;20045;-63
2021/12/01 00:05:01;;;;;;;16.58;6.47;;;;;;;9.04;100.00;100164.75;5042495;28;20032;-64
2021/12/01 00:07:26;;;;;;;13.98;5.43;;;;;;;9.03;100.00;100158.66;5041837;28;20135;-63
2021/12/01 00:09:52;;;;;;;12.27;5.65;;;;;;;9.05;100.00;100145.69;5042529;28;20048;-63
2021/12/01 00:12:17;;;;;;;11.68;5.55;;;;;;;9.05;100.00;100141.41;5042291;28;20022;-63
2021/12/01 00:14:43;;;;;;;10.95;5.43;;;;;;;9.04;100.00;100139.63;5031432;28;20048;-63
2021/12/01 00:17:11;;;;;;;10.52;5.28;;;;;;;9.06;100.00;100134.47;5042136;28;20030;-63
2021/12/01 00:19:37;;;;;;;11.77;5.75;;;;;;;9.07;99.86;100130.13;5042270;28;21383;-63
2021/12/01 00:22:02;;;;;;;11.05;5.38;;;;;;;9.06;99.92;100124.06;5041823;28;20041;-63
2021/12/01 00:24:27;;;;;;;11.73;5.00;;;;;;;9.08;99.62;100105.91;5042151;28;20026;-63
2021/12/01 00:26:53;;;;;;;10.80;5.28;;;;;;;9.07;99.49;100104.16;5041904;28;20021;-63
2021/12/01 00:29:18;;;;;;;11.52;5.28;;;;;;;9.06;99.63;100095.50;5074003;28;20049;-63
2021/12/01 00:31:43;;;;;;;9.50;4.65;;;;;;;9.05;99.56;100086.81;5042432;28;20093;-63
2021/12/01 00:34:09;;;;;;;11.25;4.88;;;;;;;9.05;99.66;100068.63;5041773;28;20033;-63
2021/12/01 00:36:34;;;;;;;13.65;5.13;;;;;;;9.05;99.54;100065.13;5041924;28;20252;-63
2021/12/01 00:38:59;;;;;;;9.98;4.72;;;;;;;9.04;99.67;100069.47;5042872;28;20033;-63
2021/12/01 00:41:25;;;;;;;10.50;4.35;;;;;;;9.05;99.43;100066.03;5042019;28;20075;-63
2021/12/01 00:43:52;;;;;;;10.43;4.85;;;;;;;9.04;99.66;100058.22;5041704;28;20030;-63
2021/12/01 00:46:23;;;;;;;10.18;4.35;;;;;;;9.04;99.50;100042.63;5045585;28;20032;-63
2021/12/01 00:48:48;;;;;;;10.95;4.57;;;;;;;9.04;99.49;100047.81;5046067;28;20328;-63
2021/12/01 00:51:16;;;;;;;10.95;4.63;;;;;;;9.03;99.67;100041.72;5045443;28;20034;-63
2021/12/01 00:53:42;;;;;;;10.07;4.63;;;;;;;9.04;99.65;100037.44;5046022;28;20024;-63
2021/12/01 00:56:09;;;;;;;9.90;4.60;;;;;;;9.03;99.43;100033.06;5045635;28;20028;-63
2021/12/01 00:58:34;;;;;;;9.23;4.72;;;;;;;9.02;99.56;100031.31;5045395;28;20032;-63
2021/12/01 01:01:01;;;;;;;10.73;4.70;;;;;;;9.03;99.41;100028.75;5045555;28;20025;-63
2021/12/01 01:03:28;;;;;;;11.50;4.80;;;;;;;9.03;99.10;100026.13;5045403;28;20268;-63
2021/12/01 01:05:53;;;;;;;12.82;4.75;;;;;;;9.02;99.23;100014.03;5045719;28;20119;-63
2021/12/01 01:08:19;;;;;;;10.93;5.00;;;;;;;9.01;99.04;100012.25;5045104;28;20335;-63
2021/12/01 01:10:57;;;;;;;12.52;5.45;;;;;;;9.01;98.91;100001.00;5044873;28;20017;-63
2021/12/01 01:16:25;;;;;;;10.82;5.30;;;;;;;8.99;98.86;99995.78;5045923;28;20097;-63
2021/12/01 01:18:55;;;;;;;13.13;5.50;;;;;;;8.98;98.73;99987.94;5045084;28;20034;-63
2021/12/01 01:21:22;;;;;;;13.35;6.10;;;;;;;8.97;98.71;99989.66;5045088;28;20036;-63
2021/12/01 01:23:47;;;;;;;14.20;6.20;;;;;;;8.97;98.65;99968.03;5044798;28;20036;-63
2021/12/01 01:26:16;;;;;;;14.15;7.10;;;;;;;8.97;98.16;99973.22;5045082;28;20021;-63
2021/12/01 01:28:42;;;;;;;16.15;7.03;;;;;;;8.95;98.46;99973.19;5044713;28;20187;-63
2021/12/01 01:31:08;;;;;;;14.82;7.10;;;;;;;8.96;98.13;99966.25;5044659;28;20041;-63
2021/12/01 01:33:34;;;;;;;16.48;8.40;;;;;;;8.93;98.24;99953.22;5045013;28;20033;-63
2021/12/01 01:35:59;;;;;;;15.77;7.25;;;;;;;8.92;97.96;99951.47;5044786;28;20036;-63
2021/12/01 01:38:24;;;;;;;16.13;7.88;;;;;;;8.94;97.87;99957.59;5044956;28;20052;-63
2021/12/01 01:40:50;;;;;;;17.23;7.90;;;;;;;8.92;97.80;99959.25;5044715;28;20306;-63
2021/12/01 01:43:16;;;;;;;17.67;8.45;;;;;;;8.91;97.83;99952.31;5044621;28;20037;-63
2021/12/01 01:45:42;;;;;;;17.42;8.25;;;;;;;8.91;97.60;99949.72;5044159;28;20036;-63
2021/12/01 01:48:13;;;;;;;17.20;7.75;;;;;;;8.90;97.10;99943.66;5045697;28;20036;-63
2021/12/01 01:50:42;;;;;;;15.18;7.65;;;;;;;8.87;97.26;99934.09;5044844;28;20084;-63
2021/12/01 01:53:20;;;;;;;15.33;7.33;;;;;;;8.87;97.35;99930.63;5044747;28;20056;-63
2021/12/01 01:55:47;;;;;;;15.18;7.88;;;;;;;8.85;97.21;99922.81;5043053;28;20287;-63
2021/12/01 01:58:14;;;;;;;15.57;7.65;;;;;;;8.83;97.04;99915.84;5043905;28;20025;-63
2021/12/01 02:01:31;;;;;;;14.15;7.47;;;;;;;8.81;97.40;99914.94;5044345;28;20025;-63
2021/12/01 02:03:29;;;;;;;14.55;7.22;;;;;;;8.79;97.02;99909.72;5031253;28;21294;-63
2021/12/01 02:05:56;;;;;;;14.40;7.20;;;;;;;8.76;96.82;99904.50;5044448;28;20251;-63
2021/12/01 02:08:29;;;;;;;16.20;7.68;;;;;;;8.74;97.18;99903.56;5044560;28;20045;-63
2021/12/01 02:10:55;;;;;;;13.32;6.55;;;;;;;8.75;96.97;99894.06;5044598;28;20052;-63
2021/12/01 02:13:21;;;;;;;14.13;6.75;;;;;;;8.74;96.78;99888.00;5044022;28;20040;-63
2021/12/01 02:15:49;;;;;;;13.55;7.20;;;;;;;8.71;96.81;99869.78;5044160;28;20030;-63
2021/12/01 02:18:14;;;;;;;12.52;6.65;;;;;;;8.74;96.28;99856.81;5042715;28;20025;-63
2021/12/01 02:20:56;;;;;;;14.82;6.85;;;;;;;8.72;96.32;99855.94;5044159;28;20026;-63
2021/12/01 02:23:23;;;;;;;13.23;6.38;;;;;;;8.70;96.33;99857.63;5043964;28;20093;-63
2021/12/01 02:25:48;;;;;;;12.95;6.70;;;;;;;8.70;95.85;99842.03;5044231;28;20022;-63
2021/12/01 02:28:14;;;;;;;11.95;5.43;;;;;;;8.68;95.74;99844.63;5043762;28;20346;-63
2021/12/01 02:30:39;;;;;;;10.55;5.03;;;;;;;8.69;95.37;99832.53;5043922;28;20041;-63
2021/12/01 02:33:04;;;;;;;10.98;5.68;;;;;;;8.67;96.00;99823.81;5044209;28;20041;-63
2021/12/01 02:35:30;;;;;;;10.23;5.80;;;;;;;8.65;95.74;99818.63;5044000;28;20279;-64
2021/12/01 02:37:55;;;;;;;11.25;5.30;;;;;;;8.63;95.93;99816.84;5039800;28;20054;-63
2021/12/01 02:40:20;;;;;;;9.18;5.18;;;;;;;8.66;95.29;99806.50;5034402;28;20052;-63
2021/12/01 02:42:46;;;;;;;10.32;5.13;;;;;;;8.64;95.25;99808.19;5042973;28;20040;-63
2021/12/01 02:45:11;;;;;;;8.77;4.97;;;;;;;8.59;95.30;99794.25;5043976;28;20089;-63
2021/12/01 02:47:36;;;;;;;9.05;4.97;;;;;;;8.59;95.42;99789.06;5043646;28;20036;-63
2021/12/01 02:50:02;;;;;;;8.48;4.30;;;;;;;8.58;94.94;99776.97;5043381;28;20107;-63
2021/12/01 02:52:33;;;;;;;9.18;4.55;;;;;;;8.57;95.04;99772.63;5043121;28;20020;-63
2021/12/01 02:54:59;;;;;;;9.23;4.63;;;;;;;8.55;94.99;99782.13;5043587;28;20028;-63
2021/12/01 02:57:25;;;;;;;8.85;4.53;;;;;;;8.55;94.82;99772.59;5043296;28;20382;-63
2021/12/01 02:59:51;;;;;;;11.05;5.15;;;;;;;8.52;95.09;99757.84;5043625;28;20021;-63
2021/12/01 03:02:17;;;;;;;12.30;5.53;;;;;;;8.50;94.88;99749.16;5042839;28;20323;-63
2021/12/01 03:04:42;;;;;;;10.88;5.28;;;;;;;8.53;94.68;99762.19;5042819;28;20030;-63
2021/12/01 03:07:08;;;;;;;11.70;5.85;;;;;;;8.47;94.86;99741.34;5042976;28;20056;-63
2021/12/01 03:09:34;;;;;;;12.75;6.25;;;;;;;8.45;94.90;99740.44;5042838;28;20041;-63
2021/12/01 03:11:59;;;;;;;11.75;6.32;;;;;;;8.44;94.95;99737.78;5043309;28;20311;-63
2021/12/01 03:14:25;;;;;;;13.63;6.28;;;;;;;8.45;94.73;99726.59;5043303;28;20026;-63
2021/12/01 03:16:52;;;;;;;11.65;5.85;;;;;;;8.43;94.15;99725.63;5043177;28;20021;-63
2021/12/01 03:19:17;;;;;;;11.95;6.38;;;;;;;8.42;94.52;99727.38;5042633;28;20033;-63
2021/12/01 03:21:43;;;;;;;13.48;6.20;;;;;;;8.42;94.13;99719.59;5042851;28;20047;-63
2021/12/01 03:24:10;;;;;;;11.45;5.93;;;;;;;8.39;94.38;99724.75;5043042;28;20207;-63
2021/12/01 03:26:37;;;;;;;13.35;6.50;;;;;;;8.39;94.54;99705.72;5043127;28;20021;-63
2021/12/01 03:29:04;;;;;;;12.82;6.10;;;;;;;8.38;94.42;99707.41;5042935;28;20080;-63
2021/12/01 03:31:29;;;;;;;13.02;6.32;;;;;;;8.36;94.17;99709.13;5043560;28;20042;-63
2021/12/01 03:33:55;;;;;;;11.93;6.28;;;;;;;8.36;94.22;99693.56;5042609;28;20030;-63
2021/12/01 03:36:20;;;;;;;12.13;6.50;;;;;;;8.39;93.57;99696.19;5042975;28;20032;-63
2021/12/01 03:38:47;;;;;;;10.70;5.72;;;;;;;8.39;93.36;99680.63;5042080;28;20072;-63
2021/12/01 03:41:12;;;;;;;13.75;6.80;;;;;;;8.38;93.82;99663.28;5042740;28;20041;-63
2021/12/01 03:43:37;;;;;;;12.23;6.53;;;;;;;8.36;93.48;99663.28;5042352;28;20082;-63
2021/12/01 03:46:03;;;;;;;12.40;6.45;;;;;;;8.34;93.78;99656.31;5042790;28;20049;-63
2021/12/01 03:48:28;;;;;;;14.35;6.93;;;;;;;8.33;93.93;99657.19;5042028;28;20049;-63
2021/12/01 03:50:54;;;;;;;13.75;6.88;;;;;;;8.34;93.55;99648.53;5042734;28;20017;-63
2021/12/01 03:53:22;;;;;;;13.63;6.63;;;;;;;8.32;93.69;99643.31;5042157;28;20117;-62
2021/12/01 03:55:48;;;;;;;11.73;6.47;;;;;;;8.30;93.43;99636.38;5042700;28;20029;-63
2021/12/01 03:58:14;;;;;;;10.75;5.80;;;;;;;8.29;93.51;99619.06;5042039;28;20646;-63
2021/12/01 04:00:39;;;;;;;12.40;6.45;;;;;;;8.29;93.72;99616.47;5042248;28;20260;-63
2021/12/01 04:03:05;;;;;;;14.82;7.05;;;;;;;8.27;93.60;99606.06;5042448;28;20200;-63
2021/12/01 04:05:32;;;;;;;14.13;6.40;;;;;;;8.28;93.49;99568.00;5041986;28;20414;-63
2021/12/01 04:07:57;;;;;;;11.70;6.35;;;;;;;8.26;93.01;99580.09;5044655;28;20248;-63
2021/12/01 04:10:23;;;;;;;14.32;7.35;;;;;;;8.24;92.97;99582.69;5041922;28;20082;-63
2021/12/01 04:12:49;;;;;;;14.85;7.82;;;;;;;8.24;93.25;99577.47;5042713;28;20064;-63
2021/12/01 04:15:15;;;;;;;17.45;7.40;;;;;;;8.22;93.74;99573.97;5042402;28;20024;-63
2021/12/01 04:17:42;;;;;;;14.27;7.15;;;;;;;8.22;93.28;99575.72;5042223;28;20164;-63
2021/12/01 04:20:08;;;;;;;13.45;6.97;;;;;;;8.20;93.01;99557.53;5044489;28;20032;-63
2021/12/01 04:22:35;;;;;;;12.65;6.10;;;;;;;8.22;92.86;99561.00;5046173;28;20069;-63
2021/12/01 04:25:00;;;;;;;14.32;6.68;;;;;;;8.19;93.05;99545.41;5046348;28;20021;-63
2021/12/01 04:27:26;;;;;;;11.73;5.78;;;;;;;8.22;92.30;99544.56;5046183;28;20079;-63
2021/12/01 04:29:51;;;;;;;11.70;5.88;;;;;;;8.19;92.34;99542.81;5046104;28;20739;-63
2021/12/01 04:32:16;;;;;;;13.90;6.38;;;;;;;8.16;92.63;99525.47;5046339;28;20176;-63
2021/12/01 04:34:42;;;;;;;11.80;5.95;;;;;;;8.16;92.29;99525.47;5045797;28;20029;-63
2021/12/01 04:37:07;;;;;;;11.82;5.32;;;;;;;8.14;92.60;99522.00;5045989;28;20103;-63
2021/12/01 04:39:33;;;;;;;10.35;4.88;;;;;;;8.14;92.36;99492.56;5045716;28;20017;-63
2021/12/01 04:42:05;;;;;;;13.02;5.85;;;;;;;8.13;92.33;99496.91;5046542;28;20033;-63
2021/12/01 04:44:33;;;;;;;9.80;5.10;;;;;;;8.11;92.37;99484.75;5045615;28;20036;-63
2021/12/01 04:47:02;;;;;;;11.20;4.93;;;;;;;8.12;91.71;99481.31;5041849;28;20192;-63
2021/12/01 04:49:28;;;;;;;8.88;4.63;;;;;;;8.10;92.16;99483.03;5045475;28;20069;-63
2021/12/01 04:51:56;;;;;;;9.52;4.88;;;;;;;8.10;92.16;99470.94;5045574;28;20097;-63
2021/12/01 04:54:23;;;;;;;9.43;4.13;;;;;;;8.09;92.07;99456.22;5045837;28;20049;-63
2021/12/01 04:56:50;;;;;;;8.82;4.90;;;;;;;8.08;92.52;99470.06;5045706;28;20033;-63
2021/12/01 04:59:16;;;;;;;10.25;5.00;;;;;;;8.09;92.24;99455.34;5043700;28;20079;-62
2021/12/01 05:01:42;;;;;;;9.75;4.95;;;;;;;8.05;93.27;99450.97;5044947;28;20286;-63
2021/12/01 05:04:08;;;;;;;9.70;4.70;;;;;;;8.04;92.97;99447.53;5044882;28;20025;-63
2021/12/01 05:06:34;;;;;;;8.70;4.75;;;;;;;8.00;93.40;99444.00;5044454;28;20126;-62
2021/12/01 05:08:59;;;;;;;10.55;5.03;;;;;;;7.96;93.72;99446.56;5045059;28;20029;-63
2021/12/01 05:11:25;;;;;;;10.48;5.05;;;;;;;7.94;93.81;99437.91;5045325;28;20032;-63
2021/12/01 05:13:51;;;;;;;9.75;4.60;;;;;;;7.90;94.08;99439.56;5044976;28;20274;-63
2021/12/01 05:16:16;;;;;;;9.60;5.00;;;;;;;7.88;94.46;99443.00;5078340;28;20021;-63
2021/12/01 05:18:41;;;;;;;8.90;4.53;;;;;;;7.85;94.29;99415.31;5045971;28;20025;-63
2021/12/01 05:21:06;;;;;;;8.80;4.53;;;;;;;7.87;94.11;99412.75;5044992;28;20072;-63
2021/12/01 05:23:32;;;;;;;9.88;4.88;;;;;;;7.80;94.84;99411.78;5045046;28;20072;-63
2021/12/01 05:25:57;;;;;;;9.63;4.35;;;;;;;7.79;94.80;99412.63;5045294;28;20040;-63
2021/12/01 05:28:23;;;;;;;8.30;4.25;;;;;;;7.78;94.47;99409.19;5045080;28;20308;-63
2021/12/01 05:30:48;;;;;;;7.13;4.10;;;;;;;7.77;95.13;99402.25;5044783;28;20053;-63
2021/12/01 05:33:15;;;;;;;8.18;3.85;;;;;;;7.76;94.98;99405.72;5044955;28;20210;-63
2021/12/01 05:35:42;;;;;;;9.95;4.00;;;;;;;7.76;94.50;99405.72;5045021;28;20034;-63
2021/12/01 05:38:08;;;;;;;8.25;3.80;;;;;;;7.75;95.16;99418.63;5045075;28;20068;-63
2021/12/01 05:40:33;;;;;;;6.70;3.75;;;;;;;7.73;95.14;99399.59;5044263;28;20227;-63
2021/12/01 05:42:59;;;;;;;8.98;3.50;;;;;;;7.71;95.34;99396.16;5045231;28;20074;-63
2021/12/01 05:45:25;;;;;;;8.52;4.05;;;;;;;7.70;95.34;99389.22;5044721;28;20112;-63
2021/12/01 05:47:51;;;;;;;6.63;3.25;;;;;;;7.71;95.28;99381.44;5044805;28;20032;-63
2021/12/01 05:50:16;;;;;;;7.20;3.15;;;;;;;7.69;95.42;99377.09;5044606;28;20355;-63
2021/12/01 05:52:42;;;;;;;8.82;3.10;;;;;;;7.69;95.18;99353.75;5044380;28;20105;-63
2021/12/01 05:55:08;;;;;;;6.93;3.30;;;;;;;7.67;95.17;99366.69;5044915;28;20029;-62
2021/12/01 05:57:34;;;;;;;5.57;2.80;;;;;;;7.65;95.36;99355.47;5044300;28;20040;-63
2021/12/01 06:00:00;;;;;;;6.03;2.92;;;;;;;7.66;95.24;99352.88;5044793;28;20021;-63
2021/12/01 06:02:25;;;;;;;4.53;2.70;;;;;;;7.63;95.61;99349.38;5044194;28;20021;-62
2021/12/01 06:04:51;;;;;;;5.07;2.97;;;;;;;7.62;95.99;99330.38;5044982;28;20048;-63
2021/12/01 06:07:16;;;;;;;6.90;2.60;;;;;;;7.61;95.78;99333.81;5043904;28;20262;-63
2021/12/01 06:09:42;;;;;;;5.60;2.80;;;;;;;7.62;96.02;99335.56;5044641;28;20029;-63
2021/12/01 06:12:07;;;;;;;4.68;2.53;;;;;;;7.61;95.76;99319.97;5043701;28;20089;-63
2021/12/01 06:14:35;;;;;;;4.85;2.55;;;;;;;7.59;95.97;99307.00;5044545;28;20246;-63
2021/12/01 06:17:00;;;;;;;6.00;2.50;;;;;;;7.60;95.78;99300.09;5044530;28;20079;-62
2021/12/01 06:19:25;;;;;;;6.30;2.40;;;;;;;7.61;96.16;99307.88;5044527;28;20053;-63
2021/12/01 06:21:51;;;;;;;5.85;2.70;;;;;;;7.60;96.08;99305.28;5044055;28;20029;-62
2021/12/01 06:24:16;;;;;;;5.00;2.38;;;;;;;7.60;96.05;99289.72;5044009;28;20100;-63
2021/12/01 06:26:42;;;;;;;5.20;2.45;;;;;;;7.60;96.38;99279.34;5044118;28;20025;-63
2021/12/01 06:29:07;;;;;;;4.82;2.38;;;;;;;7.59;96.24;99275.91;5046370;28;20029;-63
2021/12/01 06:31:33;;;;;;;5.32;2.70;;;;;;;7.61;96.25;99279.38;5043840;28;20271;-63
2021/12/01 06:33:59;;;;;;;5.45;2.78;;;;;;;7.63;96.08;99294.94;5043672;28;20049;-62
2021/12/01 06:36:25;;;;;;;5.63;2.65;;;;;;;7.63;96.01;99290.63;5043989;28;20033;-63
2021/12/01 06:38:51;;;;;;;4.55;2.63;;;;;;;7.63;96.09;99285.47;5043877;28;20060;-62
2021/12/01 06:41:16;;;;;;;4.72;2.38;;;;;;;7.64;96.16;99279.41;5043777;28;20383;-63
2021/12/01 06:43:42;;;;;;;6.15;2.70;;;;;;;7.66;96.02;99263.84;5043235;28;20296;-63
2021/12/01 06:46:07;;;;;;;6.15;2.60;;;;;;;7.65;96.02;99257.81;5043962;28;20291;-63
2021/12/01 06:48:32;;;;;;;5.25;2.80;;;;;;;7.65;96.18;99260.41;5043611;28;20049;-63
2021/12/01 06:50:57;;;;;;;6.03;2.72;;;;;;;7.67;96.25;99263.00;5043692;28;20025;-63
2021/12/01 06:53:23;;;;;;;5.30;2.65;;;;;;;7.68;96.29;99262.16;5043144;28;20175;-62
2021/12/01 06:55:48;;;;;;;6.60;2.75;;;;;;;7.68;96.37;99261.31;5043701;28;20092;-63
2021/12/01 06:58:14;;;;;;;5.35;2.70;;;;;;;7.71;96.24;99257.00;5043261;28;20032;-63
2021/12/01 07:00:39;;;;;;;5.78;2.90;;;;;;;7.70;96.35;99247.47;5043538;28;20083;-63
2021/12/01 07:03:04;;;;;;;6.43;3.28;;;;;;;7.70;96.68;99247.47;5043119;28;20113;-63
2021/12/01 07:05:30;;;;;;;7.90;3.30;;;;;;;7.71;96.68;99245.78;5043112;28;20365;-63
2021/12/01 07:07:56;;;;;;;6.10;3.50;;;;;;;7.69;96.77;99243.16;5043559;28;20025;-63
2021/12/01 07:10:22;;;;;;;8.73;3.90;;;;;;;7.71;97.17;99244.03;5039638;28;20025;-62
2021/12/01 07:12:48;;;;;;;7.15;3.65;;;;;;;7.72;96.77;99238.00;5043261;28;20295;-63
2021/12/01 07:15:13;;;;;;;8.60;4.07;;;;;;;7.73;97.02;99237.13;5043143;28;20082;-63
2021/12/01 07:17:40;;;;;;;9.02;4.10;;;;;;;7.74;97.05;99225.91;5042971;28;20159;-62
2021/12/01 07:20:06;;;;;;;7.65;4.00;;;;;;;7.75;97.29;99226.78;5042947;28;20049;-63
2021/12/01 07:22:32;;;;;;;7.50;3.55;;;;;;;7.76;97.04;99228.53;5042808;28;20037;-63
2021/12/01 07:24:57;;;;;;;6.55;3.50;;;;;;;7.77;96.99;99230.28;5042781;28;20279;-63
2021/12/01 07:27:23;;;;;;;7.28;3.95;;;;;;;7.79;97.13;99237.22;5029326;28;20033;-62
2021/12/01 07:29:48;;;;;;;8.77;4.25;;;;;;;7.79;97.12;99232.03;5032219;28;20123;-63
2021/12/01 07:32:14;;;;;;;11.25;4.25;;;;;;;7.81;97.53;99224.25;5032102;28;20053;-63
2021/12/01 07:34:42;;;;;;;7.75;3.92;;;;;;;7.81;97.30;99225.13;5034594;28;20042;-63
2021/12/01 07:37:10;;;;;;;9.43;4.53;;;;;;;7.79;97.65;99224.25;5028965;28;20032;-63
2021/12/01 07:39:36;;;;;;;8.95;4.57;;;;;;;7.82;97.42;99225.97;5036802;28;20037;-63
2021/12/01 07:42:01;;;;;;;9.77;5.00;;;;;;;7.83;97.43;99223.41;5038724;28;20349;-62
2021/12/01 07:44:26;;;;;;;10.27;4.80;;;;;;;7.84;97.40;99222.53;5028140;28;20046;-62
2021/12/01 07:46:52;;;;;;;11.82;5.25;;;;;;;7.86;97.48;99219.97;5029422;28;20026;-63
2021/12/01 07:49:19;;;;;;;9.75;4.97;;;;;;;7.89;97.29;99219.13;5025624;28;20176;-62
2021/12/01 07:51:44;;;;;;;11.05;4.82;;;;;;;7.89;97.54;99209.59;5027145;28;20052;-62
2021/12/01 07:54:10;;;;;;;10.63;5.15;;;;;;;7.90;97.36;99207.91;5027637;28;20635;-62
2021/12/01 07:56:35;;;;;;;10.43;4.90;;;;;;;7.91;97.23;99200.13;5029932;28;20032;-62
2021/12/01 07:59:00;;;;;;;10.10;4.60;;;;;;;7.94;97.03;99191.50;5036588;28;20228;-63
2021/12/01 08:01:25;;;;;;;10.02;4.90;;;;;;;7.93;97.33;99201.00;5042180;28;20100;-62
2021/12/01 08:03:51;;;;;;;10.45;4.28;;;;;;;7.95;97.29;99195.81;5042363;28;20157;-62
2021/12/01 08:06:16;;;;;;;10.25;4.72;;;;;;;7.97;97.05;99186.34;5042264;28;20047;-62
2021/12/01 08:08:41;;;;;;;9.52;4.45;;;;;;;7.98;97.07;99186.34;5042485;28;20096;-62
2021/12/01 08:11:07;;;;;;;10.48;4.65;;;;;;;7.98;97.26;99188.94;5042040;28;20032;-62
2021/12/01 08:13:32;;;;;;;9.05;4.15;;;;;;;7.99;97.04;99179.44;5042014;28;20052;-62
2021/12/01 08:15:57;;;;;;;10.20;4.80;;;;;;;8.02;97.09;99182.03;5041767;28;20069;-62
2021/12/01 08:18:23;;;;;;;9.43;4.60;;;;;;;8.03;96.99;99180.34;5028415;28;20112;-63
2021/12/01 08:20:48;;;;;;;11.98;4.75;;;;;;;8.04;97.22;99174.28;5030786;28;20061;-63
2021/12/01 08:23:14;;;;;;;9.50;4.70;;;;;;;8.05;97.07;99171.69;5038737;28;20033;-62
2021/12/01 08:25:39;;;;;;;11.55;5.20;;;;;;;8.07;96.97;99172.59;5039703;28;20033;-62
2021/12/01 08:28:05;;;;;;;10.80;5.28;;;;;;;8.08;97.18;99173.44;5034499;28;20199;-63
2021/12/01 08:30:31;;;;;;;12.15;5.40;;;;;;;8.07;97.12;99175.19;5033922;28;20017;-63
2021/12/01 08:32:57;;;;;;;10.85;5.28;;;;;;;8.09;97.15;99172.59;5034804;28;20080;-63
2021/12/01 08:35:24;;;;;;;10.60;4.95;;;;;;;8.12;96.91;99154.44;5041700;28;20193;-63
2021/12/01 08:37:49;;;;;;;11.07;5.45;;;;;;;8.12;96.74;99165.69;5042152;28;20208;-64
2021/12/01 08:40:16;;;;;;;12.25;5.90;;;;;;;8.15;96.66;99164.84;5041469;28;20396;-63
2021/12/01 08:42:42;;;;;;;10.35;4.88;;;;;;;8.15;96.65;99152.75;5041942;28;20223;-64
2021/12/01 08:45:08;;;;;;;10.75;4.90;;;;;;;8.19;96.57;99151.03;5041526;28;20044;-64
2021/12/01 08:47:34;;;;;;;10.57;5.32;;;;;;;8.24;95.81;99151.06;5041486;28;20048;-63
2021/12/01 08:49:59;;;;;;;10.32;4.75;;;;;;;8.26;95.76;99155.41;5042278;28;20272;-63
2021/12/01 08:52:25;;;;;;;10.05;4.38;;;;;;;8.29;95.94;99155.41;5041982;28;20055;-63
2021/12/01 08:54:50;;;;;;;9.98;4.47;;;;;;;8.33;96.19;99156.31;5042546;28;20021;-64
2021/12/01 08:57:16;;;;;;;9.27;4.40;;;;;;;8.37;95.72;99152.84;5040343;28;20029;-63
2021/12/01 08:59:42;;;;;;;9.95;4.25;;;;;;;8.44;95.51;99136.47;5041946;28;20049;-64
2021/12/01 09:02:08;;;;;;;10.23;4.28;;;;;;;8.48;95.47;99146.00;5073749;28;20032;-63
2021/12/01 09:04:33;;;;;;;8.50;4.22;;;;;;;8.51;95.41;99138.25;5041788;28;20025;-63
2021/12/01 09:06:58;;;;;;;10.80;4.65;;;;;;;8.55;95.30;99141.72;5045518;28;20157;-63
2021/12/01 09:09:24;;;;;;;7.85;4.10;;;;;;;8.58;94.67;99148.66;5045554;28;20071;-64
2021/12/01 09:11:52;;;;;;;8.20;3.70;;;;;;;8.57;94.26;99144.34;5044780;28;20042;-63
2021/12/01 09:14:19;;;;;;;7.18;3.83;;;;;;;8.55;94.47;99131.34;5045197;28;20075;-63
2021/12/01 09:16:46;;;;;;;7.07;3.55;;;;;;;8.52;94.49;99144.31;5045761;28;20172;-64
2021/12/01 09:19:12;;;;;;;7.30;3.53;;;;;;;8.56;94.00;99137.41;5045333;28;20053;-64
2021/12/01 09:21:37;;;;;;;6.82;3.35;;;;;;;8.55;94.03;99152.13;5045307;28;20250;-64
2021/12/01 09:24:04;;;;;;;10.13;3.47;;;;;;;8.51;94.21;99143.44;5076729;28;20104;-63
2021/12/01 09:26:29;;;;;;;7.13;3.40;;;;;;;8.50;94.26;99157.28;5045051;28;20092;-64
2021/12/01 09:28:55;;;;;;;7.07;3.40;;;;;;;8.50;94.43;99146.91;5045306;28;20029;-63
2021/12/01 09:31:20;;;;;;;8.35;3.50;;;;;;;8.50;94.62;99151.22;5045344;28;20033;-63
2021/12/01 09:33:46;;;;;;;6.47;3.25;;;;;;;8.48;94.64;99148.63;5045075;28;20072;-63
2021/12/01 09:36:13;;;;;;;6.70;3.30;;;;;;;8.48;94.78;99158.13;5044863;28;20033;-63
2021/12/01 09:38:39;;;;;;;6.28;3.30;;;;;;;8.50;94.67;99171.97;5043903;28;20104;-64
2021/12/01 09:41:04;;;;;;;8.57;3.75;;;;;;;8.45;94.40;99178.91;5044718;28;20036;-63
2021/12/01 09:43:31;;;;;;;8.15;4.18;;;;;;;8.44;93.92;99178.00;5044944;28;20045;-63
2021/12/01 09:45:59;;;;;;;9.20;4.50;;;;;;;8.42;93.76;99174.50;5044982;28;20026;-64
2021/12/01 09:48:26;;;;;;;11.18;3.60;;;;;;;8.41;93.75;99190.94;5044608;28;20029;-63
2021/12/01 09:50:52;;;;;;;9.85;3.97;;;;;;;8.39;93.38;99192.66;5045082;28;20170;-64
2021/12/01 09:53:17;;;;;;;8.85;3.50;;;;;;;8.34;93.40;99194.34;5044396;28;20279;-63
2021/12/01 09:55:43;;;;;;;8.38;3.88;;;;;;;8.31;93.78;99186.56;5044888;28;20018;-64
2021/12/01 09:58:14;;;;;;;11.13;3.85;;;;;;;8.29;93.83;99188.28;5044452;28;20021;-63
2021/12/01 10:00:48;;;;;;;9.85;3.70;;;;;;;8.27;94.00;99182.19;5044762;28;20022;-64
2021/12/01 10:03:14;;;;;;;8.70;3.88;;;;;;;8.27;94.04;99184.78;5044075;28;20033;-64
2021/12/01 10:06:13;;;;;;;11.23;3.75;;;;;;;8.28;93.93;99181.34;5044470;28;20109;-63
2021/12/01 10:08:39;;;;;;;11.95;3.22;;;;;;;8.27;92.62;99174.41;5044374;28;20021;-64
2021/12/01 10:11:28;;;;;;;8.60;3.28;;;;;;;8.23;93.45;99180.47;5044289;28;20157;-64
2021/12/01 10:13:59;;;;;;;10.82;3.08;;;;;;;8.21;92.92;99174.38;5044125;28;20304;-64
2021/12/01 10:16:33;;;;;;;12.68;3.17;;;;;;;8.20;92.11;99178.72;5043818;28;20064;-64
2021/12/01 10:19:03;;;;;;;8.98;2.65;;;;;;;8.18;91.74;99173.53;5043597;28;20168;-64
2021/12/01 10:21:37;;;;;;;13.75;3.17;;;;;;;8.17;91.97;99166.59;5044131;28;20024;-64
2021/12/01 10:24:17;;;;;;;8.30;2.80;;;;;;;8.19;91.71;99167.44;5043793;28;20025;-63
2021/12/01 10:26:50;;;;;;;12.73;2.58;;;;;;;8.20;91.70;99168.34;5044316;28;20036;-64
2021/12/01 10:29:20;;;;;;;13.43;3.25;;;;;;;8.30;91.32;99171.88;5043838;28;20032;-64
2021/12/01 10:31:48;;;;;;;10.65;2.80;;;;;;;8.39;91.04;99173.66;5044016;28;20067;-64
2021/12/01 10:34:19;;;;;;;12.32;2.80;;;;;;;8.46;90.76;99181.50;5043517;28;20029;-64
2021/12/01 10:36:46;;;;;;;12.77;2.35;;;;;;;8.51;90.27;99174.59;5043920;28;20021;-63
2021/12/01 10:39:12;;;;;;;7.60;2.00;;;;;;;8.58;89.27;99169.44;5043810;28;20087;-63
2021/12/01 10:41:40;;;;;;;12.88;2.25;;;;;;;8.64;88.81;99164.28;5043373;28;20304;-63
2021/12/01 10:44:10;;;;;;;7.13;1.83;;;;;;;8.66;87.48;99162.53;5043778;28;20065;-64
2021/12/01 10:46:51;;;;;;;8.38;1.70;;;;;;;8.67;87.81;99167.72;5043603;28;20311;-63
2021/12/01 10:49:32;;;;;;;8.38;1.83;;;;;;;8.68;88.13;99164.28;5038202;28;20323;-73
2021/12/01 10:51:57;;;;;;;9.35;1.73;;;;;;;8.68;86.77;99155.63;5063078;28;20105;-73
2021/12/01 10:54:22;;;;;;;6.57;1.70;;;;;;;8.66;86.50;99159.94;5031933;28;20022;-72
2021/12/01 10:57:21;;;;;;;10.55;1.75;;;;;;;8.67;88.33;99148.69;5032295;28;20049;-73
2021/12/01 10:59:48;;;;;;;9.03;1.90;;;;;;;8.67;85.24;99153.88;5037347;28;20033;-73
2021/12/01 11:02:15;;;;;;;13.35;1.98;;;;;;;8.62;86.18;99148.69;5035126;28;20042;-73
2021/12/01 11:04:42;;;;;;;7.70;1.42;;;;;;;8.56;87.37;99161.66;5033094;28;20033;-73
2021/12/01 11:07:32;;;;;;;12.35;1.73;;;;;;;8.55;88.00;99156.44;5030984;28;20293;-73
2021/12/01 11:10:18;;;;;;;7.93;1.50;;;;;;;8.49;88.21;99155.53;5033710;28;20021;-73
2021/12/01 11:12:53;;;;;;;11.20;1.70;;;;;;;8.45;87.56;99158.97;5038615;28;20291;-74
2021/12/01 11:15:25;;;;;;;6.70;1.60;;;;;;;8.43;86.54;99178.84;5033925;28;20026;-74
2021/12/01 11:17:51;;;;;;;8.45;1.58;;;;;;;8.39;86.84;99179.69;5028871;28;20343;-73
2021/12/01 11:20:46;;;;;;;6.45;1.30;;;;;;;8.37;86.84;99178.78;5040656;28;20271;-73
2021/12/01 11:23:33;;;;;;;8.90;1.33;;;;;;;8.34;87.11;99181.38;5026696;28;20036;-73
2021/12/01 11:26:23;;;;;;;6.18;1.42;;;;;;;8.29;87.31;99186.56;5037510;28;20161;-73
2021/12/01 11:28:53;;;;;;;6.05;1.30;;;;;;;8.25;87.64;99181.34;5029884;28;20073;-73
2021/12/01 11:31:23;;;;;;;6.03;1.20;;;;;;;8.18;87.72;99190.78;5035726;28;20029;-74
2021/12/01 11:33:55;;;;;;;3.97;1.30;;;;;;;8.15;88.30;99193.38;5041531;28;20041;-73
2021/12/01 11:36:22;;;;;;;9.65;1.60;;;;;;;8.13;87.70;99188.19;5039536;28;20023;-74
2021/12/01 11:38:49;;;;;;;8.52;1.38;;;;;;;8.12;87.14;99190.75;5033196;28;20039;-73